sensor_id;sensor_type;location;lat;lon;timestamp;P1;durP1;ratioP1;P2;durP2;ratioP2
64011;SDS011;50211;52.768;12.124;2023-03-24T00:00:44;5.50;;;2.90;;
64011;SDS011;50211;52.768;12.124;2023-03-24T00:03:09;5.95;;;3.38;;
64011;SDS011;50211;52.768;12.124;2023-03-24T00:05:35;4.00;;;2.85;;
64011;SDS011;50211;52.768;12.124;2023-03-24T00:08:02;7.30;;;3.15;;
64011;SDS011;50211;52.768;12.124;2023-03-24T00:10:29;4.25;;;2.85;;
64011;SDS011;50211;52.768;12.124;2023-03-24T00:12:58;5.80;;;2.55;;
64011;SDS011;50211;52.768;12.124;2023-03-24T00:15:25;3.53;;;2.70;;
64011;SDS011;50211;52.768;12.124;2023-03-24T00:17:51;4.80;;;2.90;;
64011;SDS011;50211;52.768;12.124;2023-03-24T00:20:17;9.55;;;2.92;;
64011;SDS011;50211;52.768;12.124;2023-03-24T00:22:45;7.80;;;2.92;;
64011;SDS011;50211;52.768;12.124;2023-03-24T00:25:16;2.97;;;2.55;;
64011;SDS011;50211;52.768;12.124;2023-03-24T00:27:42;6.15;;;2.88;;
64011;SDS011;50211;52.768;12.124;2023-03-24T00:30:09;7.65;;;3.00;;
64011;SDS011;50211;52.768;12.124;2023-03-24T00:32:36;3.90;;;2.78;;
64011;SDS011;50211;52.768;12.124;2023-03-24T00:35:05;6.88;;;2.45;;
64011;SDS011;50211;52.768;12.124;2023-03-24T00:37:36;6.35;;;2.92;;
64011;SDS011;50211;52.768;12.124;2023-03-24T00:40:07;6.22;;;2.53;;
64011;SDS011;50211;52.768;12.124;2023-03-24T00:42:36;7.05;;;2.88;;
64011;SDS011;50211;52.768;12.124;2023-03-24T00:45:04;4.40;;;2.70;;
64011;SDS011;50211;52.768;12.124;2023-03-24T00:47:31;4.93;;;2.60;;
64011;SDS011;50211;52.768;12.124;2023-03-24T00:50:05;5.13;;;2.92;;
64011;SDS011;50211;52.768;12.124;2023-03-24T00:52:32;3.85;;;2.90;;
64011;SDS011;50211;52.768;12.124;2023-03-24T00:54:58;4.68;;;2.40;;
64011;SDS011;50211;52.768;12.124;2023-03-24T00:57:26;7.93;;;3.17;;
64011;SDS011;50211;52.768;12.124;2023-03-24T00:59:54;4.60;;;2.42;;
64011;SDS011;50211;52.768;12.124;2023-03-24T01:02:24;4.18;;;2.83;;
64011;SDS011;50211;52.768;12.124;2023-03-24T01:04:57;8.13;;;2.45;;
64011;SDS011;50211;52.768;12.124;2023-03-24T01:07:24;3.00;;;2.42;;
64011;SDS011;50211;52.768;12.124;2023-03-24T01:09:51;2.80;;;2.38;;
64011;SDS011;50211;52.768;12.124;2023-03-24T01:12:22;3.45;;;2.30;;
64011;SDS011;50211;52.768;12.124;2023-03-24T01:14:52;4.95;;;2.20;;
64011;SDS011;50211;52.768;12.124;2023-03-24T01:17:19;5.65;;;2.50;;
64011;SDS011;50211;52.768;12.124;2023-03-24T01:19:46;4.32;;;2.38;;
64011;SDS011;50211;52.768;12.124;2023-03-24T01:22:12;4.00;;;2.35;;
64011;SDS011;50211;52.768;12.124;2023-03-24T01:24:38;3.88;;;2.30;;
64011;SDS011;50211;52.768;12.124;2023-03-24T01:27:04;6.30;;;2.30;;
64011;SDS011;50211;52.768;12.124;2023-03-24T01:29:29;4.20;;;2.20;;
64011;SDS011;50211;52.768;12.124;2023-03-24T01:31:55;3.80;;;2.23;;
64011;SDS011;50211;52.768;12.124;2023-03-24T01:34:21;3.85;;;2.75;;
64011;SDS011;50211;52.768;12.124;2023-03-24T01:36:46;2.07;;;1.67;;
64011;SDS011;50211;52.768;12.124;2023-03-24T01:39:12;3.97;;;2.28;;
64011;SDS011;50211;52.768;12.124;2023-03-24T01:41:38;2.35;;;1.90;;
64011;SDS011;50211;52.768;12.124;2023-03-24T01:44:24;3.20;;;1.77;;
64011;SDS011;50211;52.768;12.124;2023-03-24T01:46:52;3.00;;;2.20;;
64011;SDS011;50211;52.768;12.124;2023-03-24T01:49:18;3.05;;;2.15;;
64011;SDS011;50211;52.768;12.124;2023-03-24T01:51:46;6.55;;;1.90;;
64011;SDS011;50211;52.768;12.124;2023-03-24T01:54:15;2.97;;;1.83;;
64011;SDS011;50211;52.768;12.124;2023-03-24T01:57:14;6.18;;;2.00;;
64011;SDS011;50211;52.768;12.124;2023-03-24T01:59:52;4.30;;;2.28;;
64011;SDS011;50211;52.768;12.124;2023-03-24T02:02:19;2.22;;;1.80;;
64011;SDS011;50211;52.768;12.124;2023-03-24T02:04:47;3.50;;;1.70;;
64011;SDS011;50211;52.768;12.124;2023-03-24T02:07:31;4.47;;;2.13;;
64011;SDS011;50211;52.768;12.124;2023-03-24T02:10:07;2.92;;;1.77;;
64011;SDS011;50211;52.768;12.124;2023-03-24T02:12:37;5.18;;;2.00;;
64011;SDS011;50211;52.768;12.124;2023-03-24T02:15:04;2.55;;;2.00;;
64011;SDS011;50211;52.768;12.124;2023-03-24T02:29:13;4.07;;;2.50;;
64011;SDS011;50211;52.768;12.124;2023-03-24T02:40:40;2.88;;;1.90;;
64011;SDS011;50211;52.768;12.124;2023-03-24T02:43:23;4.68;;;2.35;;
64011;SDS011;50211;52.768;12.124;2023-03-24T02:46:19;4.82;;;2.55;;
64011;SDS011;50211;52.768;12.124;2023-03-24T02:49:12;3.05;;;2.17;;
64011;SDS011;50211;52.768;12.124;2023-03-24T02:51:55;3.33;;;2.45;;
64011;SDS011;50211;52.768;12.124;2023-03-24T02:57:09;4.22;;;2.50;;
64011;SDS011;50211;52.768;12.124;2023-03-24T03:00:19;7.47;;;3.03;;
64011;SDS011;50211;52.768;12.124;2023-03-24T03:02:56;3.78;;;2.17;;
64011;SDS011;50211;52.768;12.124;2023-03-24T03:05:41;4.28;;;2.67;;
64011;SDS011;50211;52.768;12.124;2023-03-24T03:08:22;6.00;;;2.85;;
64011;SDS011;50211;52.768;12.124;2023-03-24T03:10:51;4.00;;;3.10;;
64011;SDS011;50211;52.768;12.124;2023-03-24T03:13:20;4.30;;;2.63;;
64011;SDS011;50211;52.768;12.124;2023-03-24T03:15:52;7.53;;;2.63;;
64011;SDS011;50211;52.768;12.124;2023-03-24T03:18:21;5.68;;;2.63;;
64011;SDS011;50211;52.768;12.124;2023-03-24T03:20:56;7.03;;;2.70;;
64011;SDS011;50211;52.768;12.124;2023-03-24T03:23:31;5.10;;;3.03;;
64011;SDS011;50211;52.768;12.124;2023-03-24T03:26:01;7.05;;;3.15;;
64011;SDS011;50211;52.768;12.124;2023-03-24T03:28:28;3.45;;;2.70;;
64011;SDS011;50211;52.768;12.124;2023-03-24T03:30:56;6.43;;;3.33;;
64011;SDS011;50211;52.768;12.124;2023-03-24T03:33:31;5.50;;;2.60;;
64011;SDS011;50211;52.768;12.124;2023-03-24T03:36:03;3.90;;;2.75;;
64011;SDS011;50211;52.768;12.124;2023-03-24T03:41:31;5.93;;;3.65;;
64011;SDS011;50211;52.768;12.124;2023-03-24T03:43:56;6.85;;;3.60;;
64011;SDS011;50211;52.768;12.124;2023-03-24T03:46:22;5.35;;;3.20;;
64011;SDS011;50211;52.768;12.124;2023-03-24T03:48:48;4.68;;;3.08;;
64011;SDS011;50211;52.768;12.124;2023-03-24T03:51:13;5.82;;;3.25;;
64011;SDS011;50211;52.768;12.124;2023-03-24T03:53:43;5.25;;;3.17;;
64011;SDS011;50211;52.768;12.124;2023-03-24T03:56:21;5.80;;;3.15;;
64011;SDS011;50211;52.768;12.124;2023-03-24T03:58:49;4.88;;;3.22;;
64011;SDS011;50211;52.768;12.124;2023-03-24T04:01:15;4.28;;;3.00;;
64011;SDS011;50211;52.768;12.124;2023-03-24T04:06:43;4.57;;;3.55;;
64011;SDS011;50211;52.768;12.124;2023-03-24T04:09:25;5.35;;;3.20;;
64011;SDS011;50211;52.768;12.124;2023-03-24T04:12:24;6.00;;;3.55;;
64011;SDS011;50211;52.768;12.124;2023-03-24T04:20:31;4.27;;;3.23;;
64011;SDS011;50211;52.768;12.124;2023-03-24T04:25:58;6.72;;;3.08;;
64011;SDS011;50211;52.768;12.124;2023-03-24T04:28:43;4.85;;;3.60;;
64011;SDS011;50211;52.768;12.124;2023-03-24T04:33:51;8.73;;;3.20;;
64011;SDS011;50211;52.768;12.124;2023-03-24T04:39:15;6.03;;;3.42;;
64011;SDS011;50211;52.768;12.124;2023-03-24T04:41:43;5.40;;;3.05;;
64011;SDS011;50211;52.768;12.124;2023-03-24T04:44:11;4.93;;;3.20;;
64011;SDS011;50211;52.768;12.124;2023-03-24T04:46:41;5.50;;;2.90;;
64011;SDS011;50211;52.768;12.124;2023-03-24T04:49:07;5.55;;;3.17;;
64011;SDS011;50211;52.768;12.124;2023-03-24T04:51:33;5.40;;;3.33;;
64011;SDS011;50211;52.768;12.124;2023-03-24T04:53:59;8.15;;;3.40;;
64011;SDS011;50211;52.768;12.124;2023-03-24T04:56:30;4.22;;;3.17;;
64011;SDS011;50211;52.768;12.124;2023-03-24T04:59:07;6.03;;;3.08;;
64011;SDS011;50211;52.768;12.124;2023-03-24T05:01:33;4.38;;;3.22;;
64011;SDS011;50211;52.768;12.124;2023-03-24T05:04:01;5.10;;;3.17;;
64011;SDS011;50211;52.768;12.124;2023-03-24T05:06:28;4.90;;;2.95;;
64011;SDS011;50211;52.768;12.124;2023-03-24T05:08:53;3.78;;;2.88;;
64011;SDS011;50211;52.768;12.124;2023-03-24T05:11:21;5.50;;;3.30;;
64011;SDS011;50211;52.768;12.124;2023-03-24T05:13:47;6.35;;;3.03;;
64011;SDS011;50211;52.768;12.124;2023-03-24T05:16:12;4.25;;;3.28;;
64011;SDS011;50211;52.768;12.124;2023-03-24T05:18:39;5.32;;;3.22;;
64011;SDS011;50211;52.768;12.124;2023-03-24T05:21:04;6.85;;;3.30;;
64011;SDS011;50211;52.768;12.124;2023-03-24T05:23:30;8.65;;;3.60;;
64011;SDS011;50211;52.768;12.124;2023-03-24T05:25:56;7.22;;;3.38;;
64011;SDS011;50211;52.768;12.124;2023-03-24T05:28:21;7.82;;;3.40;;
64011;SDS011;50211;52.768;12.124;2023-03-24T05:30:47;5.07;;;2.95;;
64011;SDS011;50211;52.768;12.124;2023-03-24T05:33:12;6.00;;;3.10;;
64011;SDS011;50211;52.768;12.124;2023-03-24T05:35:38;4.60;;;2.83;;
64011;SDS011;50211;52.768;12.124;2023-03-24T05:38:03;4.88;;;3.25;;
64011;SDS011;50211;52.768;12.124;2023-03-24T05:40:29;3.17;;;2.40;;
64011;SDS011;50211;52.768;12.124;2023-03-24T05:42:55;4.95;;;2.95;;
64011;SDS011;50211;52.768;12.124;2023-03-24T05:45:20;5.00;;;2.85;;
64011;SDS011;50211;52.768;12.124;2023-03-24T05:47:46;7.32;;;3.08;;
64011;SDS011;50211;52.768;12.124;2023-03-24T05:50:12;4.93;;;2.85;;
64011;SDS011;50211;52.768;12.124;2023-03-24T05:52:37;4.00;;;2.63;;
64011;SDS011;50211;52.768;12.124;2023-03-24T05:55:03;5.25;;;2.85;;
64011;SDS011;50211;52.768;12.124;2023-03-24T05:57:29;4.43;;;2.70;;
64011;SDS011;50211;52.768;12.124;2023-03-24T05:59:57;4.03;;;3.22;;
64011;SDS011;50211;52.768;12.124;2023-03-24T06:02:23;5.70;;;2.38;;
64011;SDS011;50211;52.768;12.124;2023-03-24T06:04:51;5.78;;;3.05;;
64011;SDS011;50211;52.768;12.124;2023-03-24T06:07:17;4.10;;;2.88;;
64011;SDS011;50211;52.768;12.124;2023-03-24T06:09:42;4.93;;;2.85;;
64011;SDS011;50211;52.768;12.124;2023-03-24T06:12:11;6.53;;;3.03;;
64011;SDS011;50211;52.768;12.124;2023-03-24T06:14:37;7.15;;;3.33;;
64011;SDS011;50211;52.768;12.124;2023-03-24T06:17:03;5.80;;;2.78;;
64011;SDS011;50211;52.768;12.124;2023-03-24T06:19:28;3.95;;;2.65;;
64011;SDS011;50211;52.768;12.124;2023-03-24T06:21:56;5.18;;;2.83;;
64011;SDS011;50211;52.768;12.124;2023-03-24T06:24:24;5.18;;;2.97;;
64011;SDS011;50211;52.768;12.124;2023-03-24T06:26:51;4.82;;;3.17;;
64011;SDS011;50211;52.768;12.124;2023-03-24T06:29:16;4.97;;;2.40;;
64011;SDS011;50211;52.768;12.124;2023-03-24T06:31:42;3.63;;;3.03;;
64011;SDS011;50211;52.768;12.124;2023-03-24T06:34:09;5.72;;;3.30;;
64011;SDS011;50211;52.768;12.124;2023-03-24T06:36:35;4.22;;;2.67;;
64011;SDS011;50211;52.768;12.124;2023-03-24T06:39:01;4.65;;;3.25;;
64011;SDS011;50211;52.768;12.124;2023-03-24T06:41:29;4.20;;;3.38;;
64011;SDS011;50211;52.768;12.124;2023-03-24T06:43:55;5.20;;;2.95;;
64011;SDS011;50211;52.768;12.124;2023-03-24T06:46:21;4.85;;;3.22;;
64011;SDS011;50211;52.768;12.124;2023-03-24T06:48:47;6.80;;;3.25;;
64011;SDS011;50211;52.768;12.124;2023-03-24T06:51:13;6.53;;;3.50;;
64011;SDS011;50211;52.768;12.124;2023-03-24T06:53:38;7.25;;;3.30;;
64011;SDS011;50211;52.768;12.124;2023-03-24T06:56:05;6.50;;;3.30;;
64011;SDS011;50211;52.768;12.124;2023-03-24T06:58:31;6.60;;;3.38;;
64011;SDS011;50211;52.768;12.124;2023-03-24T07:00:58;5.28;;;3.30;;
64011;SDS011;50211;52.768;12.124;2023-03-24T07:03:25;4.90;;;3.33;;
64011;SDS011;50211;52.768;12.124;2023-03-24T07:05:50;4.60;;;2.83;;
64011;SDS011;50211;52.768;12.124;2023-03-24T07:08:16;5.13;;;3.22;;
64011;SDS011;50211;52.768;12.124;2023-03-24T07:10:41;4.57;;;2.88;;
64011;SDS011;50211;52.768;12.124;2023-03-24T07:13:07;4.35;;;2.75;;
64011;SDS011;50211;52.768;12.124;2023-03-24T07:15:33;5.32;;;3.10;;
64011;SDS011;50211;52.768;12.124;2023-03-24T07:17:59;5.65;;;3.08;;
64011;SDS011;50211;52.768;12.124;2023-03-24T07:20:24;5.93;;;3.17;;
64011;SDS011;50211;52.768;12.124;2023-03-24T07:22:50;5.80;;;2.95;;
64011;SDS011;50211;52.768;12.124;2023-03-24T07:31:11;3.88;;;2.72;;
64011;SDS011;50211;52.768;12.124;2023-03-24T07:33:37;5.15;;;3.03;;
64011;SDS011;50211;52.768;12.124;2023-03-24T07:36:03;3.92;;;3.03;;
64011;SDS011;50211;52.768;12.124;2023-03-24T07:38:29;4.10;;;2.85;;
64011;SDS011;50211;52.768;12.124;2023-03-24T07:40:56;5.60;;;3.22;;
64011;SDS011;50211;52.768;12.124;2023-03-24T07:43:23;4.13;;;3.10;;
64011;SDS011;50211;52.768;12.124;2023-03-24T07:45:48;4.22;;;2.80;;
64011;SDS011;50211;52.768;12.124;2023-03-24T07:48:14;3.55;;;2.50;;
64011;SDS011;50211;52.768;12.124;2023-03-24T07:50:40;5.03;;;3.13;;
64011;SDS011;50211;52.768;12.124;2023-03-24T07:53:05;7.55;;;2.90;;
64011;SDS011;50211;52.768;12.124;2023-03-24T07:55:34;5.05;;;3.13;;
64011;SDS011;50211;52.768;12.124;2023-03-24T07:58:00;5.80;;;3.00;;
64011;SDS011;50211;52.768;12.124;2023-03-24T08:00:26;8.05;;;2.67;;
64011;SDS011;50211;52.768;12.124;2023-03-24T08:02:53;5.68;;;2.53;;
64011;SDS011;50211;52.768;12.124;2023-03-24T08:05:18;5.55;;;2.42;;
64011;SDS011;50211;52.768;12.124;2023-03-24T08:07:47;5.95;;;2.85;;
64011;SDS011;50211;52.768;12.124;2023-03-24T08:10:17;3.85;;;2.85;;
64011;SDS011;50211;52.768;12.124;2023-03-24T08:12:45;4.95;;;3.17;;
64011;SDS011;50211;52.768;12.124;2023-03-24T08:15:11;3.88;;;2.90;;
64011;SDS011;50211;52.768;12.124;2023-03-24T08:17:38;6.38;;;3.13;;
64011;SDS011;50211;52.768;12.124;2023-03-24T08:20:04;3.80;;;2.78;;
64011;SDS011;50211;52.768;12.124;2023-03-24T08:22:38;3.97;;;2.67;;
64011;SDS011;50211;52.768;12.124;2023-03-24T08:25:05;6.78;;;3.25;;
64011;SDS011;50211;52.768;12.124;2023-03-24T08:27:32;4.50;;;3.00;;
64011;SDS011;50211;52.768;12.124;2023-03-24T08:29:57;5.25;;;3.38;;
64011;SDS011;50211;52.768;12.124;2023-03-24T08:32:23;4.50;;;3.30;;
64011;SDS011;50211;52.768;12.124;2023-03-24T08:34:48;6.50;;;3.40;;
64011;SDS011;50211;52.768;12.124;2023-03-24T08:37:14;8.25;;;3.22;;
64011;SDS011;50211;52.768;12.124;2023-03-24T08:39:39;5.05;;;3.40;;
64011;SDS011;50211;52.768;12.124;2023-03-24T08:42:05;5.03;;;2.70;;
64011;SDS011;50211;52.768;12.124;2023-03-24T08:44:30;10.07;;;4.10;;
64011;SDS011;50211;52.768;12.124;2023-03-24T08:46:56;7.15;;;3.00;;
64011;SDS011;50211;52.768;12.124;2023-03-24T08:49:22;7.05;;;3.63;;
64011;SDS011;50211;52.768;12.124;2023-03-24T08:51:47;4.38;;;3.13;;
64011;SDS011;50211;52.768;12.124;2023-03-24T08:54:12;4.43;;;3.42;;
64011;SDS011;50211;52.768;12.124;2023-03-24T08:56:38;4.10;;;2.88;;
64011;SDS011;50211;52.768;12.124;2023-03-24T08:59:04;5.40;;;3.33;;
64011;SDS011;50211;52.768;12.124;2023-03-24T09:01:30;5.60;;;3.00;;
64011;SDS011;50211;52.768;12.124;2023-03-24T09:03:58;5.72;;;3.25;;
64011;SDS011;50211;52.768;12.124;2023-03-24T09:06:23;5.13;;;3.50;;
64011;SDS011;50211;52.768;12.124;2023-03-24T09:08:51;3.83;;;2.72;;
64011;SDS011;50211;52.768;12.124;2023-03-24T09:11:17;3.83;;;2.65;;
64011;SDS011;50211;52.768;12.124;2023-03-24T09:13:45;5.22;;;3.03;;
64011;SDS011;50211;52.768;12.124;2023-03-24T09:16:12;3.75;;;2.33;;
64011;SDS011;50211;52.768;12.124;2023-03-24T09:18:38;7.05;;;2.70;;
64011;SDS011;50211;52.768;12.124;2023-03-24T09:21:04;4.10;;;2.50;;
64011;SDS011;50211;52.768;12.124;2023-03-24T09:23:30;4.20;;;2.42;;
64011;SDS011;50211;52.768;12.124;2023-03-24T09:25:56;4.80;;;2.58;;
64011;SDS011;50211;52.768;12.124;2023-03-24T09:28:21;3.13;;;1.80;;
64011;SDS011;50211;52.768;12.124;2023-03-24T09:30:47;3.83;;;1.80;;
64011;SDS011;50211;52.768;12.124;2023-03-24T09:33:13;2.95;;;1.75;;
64011;SDS011;50211;52.768;12.124;2023-03-24T09:35:39;2.45;;;1.83;;
64011;SDS011;50211;52.768;12.124;2023-03-24T09:38:05;2.03;;;1.50;;
64011;SDS011;50211;52.768;12.124;2023-03-24T09:40:31;1.58;;;1.40;;
64011;SDS011;50211;52.768;12.124;2023-03-24T09:43:05;2.10;;;1.35;;
64011;SDS011;50211;52.768;12.124;2023-03-24T09:45:39;2.53;;;1.27;;
64011;SDS011;50211;52.768;12.124;2023-03-24T09:48:24;2.35;;;1.48;;
64011;SDS011;50211;52.768;12.124;2023-03-24T09:51:09;1.77;;;1.25;;
64011;SDS011;50211;52.768;12.124;2023-03-24T09:53:48;1.08;;;0.98;;
64011;SDS011;50211;52.768;12.124;2023-03-24T09:56:21;2.38;;;1.13;;
64011;SDS011;50211;52.768;12.124;2023-03-24T09:58:53;3.70;;;1.30;;
64011;SDS011;50211;52.768;12.124;2023-03-24T10:01:26;2.22;;;1.50;;
64011;SDS011;50211;52.768;12.124;2023-03-24T10:03:52;3.20;;;1.27;;
64011;SDS011;50211;52.768;12.124;2023-03-24T10:06:22;3.08;;;1.30;;
64011;SDS011;50211;52.768;12.124;2023-03-24T10:11:47;2.38;;;1.30;;
64011;SDS011;50211;52.768;12.124;2023-03-24T10:22:55;1.45;;;1.10;;
64011;SDS011;50211;52.768;12.124;2023-03-24T10:25:42;4.38;;;1.10;;
64011;SDS011;50211;52.768;12.124;2023-03-24T10:28:13;2.08;;;1.38;;
64011;SDS011;50211;52.768;12.124;2023-03-24T10:30:45;1.13;;;1.02;;
64011;SDS011;50211;52.768;12.124;2023-03-24T10:33:12;1.42;;;1.00;;
64011;SDS011;50211;52.768;12.124;2023-03-24T10:38:29;1.65;;;1.13;;
64011;SDS011;50211;52.768;12.124;2023-03-24T10:40:55;2.15;;;1.00;;
64011;SDS011;50211;52.768;12.124;2023-03-24T10:43:21;3.70;;;1.20;;
64011;SDS011;50211;52.768;12.124;2023-03-24T10:45:48;4.88;;;1.20;;
64011;SDS011;50211;52.768;12.124;2023-03-24T10:51:04;1.00;;;0.90;;
64011;SDS011;50211;52.768;12.124;2023-03-24T10:53:30;1.48;;;1.05;;
64011;SDS011;50211;52.768;12.124;2023-03-24T10:55:57;1.35;;;1.10;;
64011;SDS011;50211;52.768;12.124;2023-03-24T11:01:07;1.90;;;1.42;;
64011;SDS011;50211;52.768;12.124;2023-03-24T11:03:43;1.73;;;1.00;;
64011;SDS011;50211;52.768;12.124;2023-03-24T11:06:12;4.47;;;1.10;;
64011;SDS011;50211;52.768;12.124;2023-03-24T11:08:43;3.63;;;1.08;;
64011;SDS011;50211;52.768;12.124;2023-03-24T11:11:13;2.78;;;0.90;;
64011;SDS011;50211;52.768;12.124;2023-03-24T11:13:53;1.92;;;0.90;;
64011;SDS011;50211;52.768;12.124;2023-03-24T11:16:29;1.25;;;0.80;;
64011;SDS011;50211;52.768;12.124;2023-03-24T11:21:31;1.52;;;1.08;;
64011;SDS011;50211;52.768;12.124;2023-03-24T11:24:00;2.90;;;1.10;;
64011;SDS011;50211;52.768;12.124;2023-03-24T11:26:32;1.33;;;1.00;;
64011;SDS011;50211;52.768;12.124;2023-03-24T11:29:04;3.67;;;1.23;;
64011;SDS011;50211;52.768;12.124;2023-03-24T11:31:33;1.23;;;1.08;;
64011;SDS011;50211;52.768;12.124;2023-03-24T11:36:39;21.67;;;9.82;;
64011;SDS011;50211;52.768;12.124;2023-03-24T11:39:26;41.20;;;18.17;;
64011;SDS011;50211;52.768;12.124;2023-03-24T11:47:17;2.92;;;2.63;;
64011;SDS011;50211;52.768;12.124;2023-03-24T11:49:54;3.33;;;3.03;;
64011;SDS011;50211;52.768;12.124;2023-03-24T11:55:15;3.17;;;2.15;;
64011;SDS011;50211;52.768;12.124;2023-03-24T11:57:51;1.65;;;1.20;;
64011;SDS011;50211;52.768;12.124;2023-03-24T12:00:23;2.30;;;1.15;;
64011;SDS011;50211;52.768;12.124;2023-03-24T12:03:05;3.65;;;1.13;;
64011;SDS011;50211;52.768;12.124;2023-03-24T12:06:18;6.75;;;3.42;;
64011;SDS011;50211;52.768;12.124;2023-03-24T12:14:36;4.38;;;2.72;;
64011;SDS011;50211;52.768;12.124;2023-03-24T12:17:21;0.88;;;0.88;;
64011;SDS011;50211;52.768;12.124;2023-03-24T12:33:42;1.98;;;0.85;;
64011;SDS011;50211;52.768;12.124;2023-03-24T12:36:37;1.02;;;0.82;;
64011;SDS011;50211;52.768;12.124;2023-03-24T12:39:11;1.23;;;0.60;;
64011;SDS011;50211;52.768;12.124;2023-03-24T12:44:34;1.85;;;0.82;;
64011;SDS011;50211;52.768;12.124;2023-03-24T13:04:45;2.90;;;1.10;;
64011;SDS011;50211;52.768;12.124;2023-03-24T13:07:30;1.83;;;1.08;;
64011;SDS011;50211;52.768;12.124;2023-03-24T13:09:53;2.55;;;1.70;;
64011;SDS011;50211;52.768;12.124;2023-03-24T13:12:50;6.13;;;1.20;;
64011;SDS011;50211;52.768;12.124;2023-03-24T13:17:47;5.00;;;1.10;;
64011;SDS011;50211;52.768;12.124;2023-03-24T13:23:14;4.00;;;1.02;;
64011;SDS011;50211;52.768;12.124;2023-03-24T13:25:51;4.13;;;1.23;;
64011;SDS011;50211;52.768;12.124;2023-03-24T13:28:39;4.20;;;1.13;;
64011;SDS011;50211;52.768;12.124;2023-03-24T13:31:18;7.75;;;1.65;;
64011;SDS011;50211;52.768;12.124;2023-03-24T13:33:47;2.10;;;0.98;;
64011;SDS011;50211;52.768;12.124;2023-03-24T13:36:24;4.18;;;1.38;;
64011;SDS011;50211;52.768;12.124;2023-03-24T13:38:53;2.92;;;0.90;;
64011;SDS011;50211;52.768;12.124;2023-03-24T13:41:22;4.72;;;1.20;;
64011;SDS011;50211;52.768;12.124;2023-03-24T13:43:56;3.30;;;1.13;;
64011;SDS011;50211;52.768;12.124;2023-03-24T13:46:26;7.88;;;1.40;;
64011;SDS011;50211;52.768;12.124;2023-03-24T13:48:53;4.50;;;1.40;;
64011;SDS011;50211;52.768;12.124;2023-03-24T13:51:25;7.68;;;1.20;;
64011;SDS011;50211;52.768;12.124;2023-03-24T14:01:36;1.45;;;1.00;;
64011;SDS011;50211;52.768;12.124;2023-03-24T14:04:14;6.72;;;1.70;;
64011;SDS011;50211;52.768;12.124;2023-03-24T14:06:43;3.33;;;0.90;;
64011;SDS011;50211;52.768;12.124;2023-03-24T14:09:24;7.38;;;1.80;;
64011;SDS011;50211;52.768;12.124;2023-03-24T14:14:26;4.75;;;1.10;;
64011;SDS011;50211;52.768;12.124;2023-03-24T14:17:12;4.13;;;1.00;;
64011;SDS011;50211;52.768;12.124;2023-03-24T14:20:10;4.22;;;1.10;;
64011;SDS011;50211;52.768;12.124;2023-03-24T14:22:43;4.95;;;1.42;;
64011;SDS011;50211;52.768;12.124;2023-03-24T14:27:40;5.13;;;1.38;;
64011;SDS011;50211;52.768;12.124;2023-03-24T14:32:44;3.90;;;1.02;;
64011;SDS011;50211;52.768;12.124;2023-03-24T14:35:19;4.18;;;1.20;;
64011;SDS011;50211;52.768;12.124;2023-03-24T14:37:48;5.28;;;1.63;;
64011;SDS011;50211;52.768;12.124;2023-03-24T14:40:24;5.25;;;1.30;;
64011;SDS011;50211;52.768;12.124;2023-03-24T14:42:55;7.78;;;1.55;;
64011;SDS011;50211;52.768;12.124;2023-03-24T14:48:14;2.53;;;1.38;;
64011;SDS011;50211;52.768;12.124;2023-03-24T14:50:51;11.52;;;2.22;;
64011;SDS011;50211;52.768;12.124;2023-03-24T14:53:19;3.72;;;1.10;;
64011;SDS011;50211;52.768;12.124;2023-03-24T14:55:46;3.72;;;1.45;;
64011;SDS011;50211;52.768;12.124;2023-03-24T15:00:52;7.80;;;1.75;;
64011;SDS011;50211;52.768;12.124;2023-03-24T15:03:28;3.10;;;1.58;;
64011;SDS011;50211;52.768;12.124;2023-03-24T15:08:43;6.32;;;1.10;;
64011;SDS011;50211;52.768;12.124;2023-03-24T15:11:13;4.43;;;1.30;;
64011;SDS011;50211;52.768;12.124;2023-03-24T15:13:43;5.90;;;1.65;;
64011;SDS011;50211;52.768;12.124;2023-03-24T15:18:44;6.05;;;1.65;;
64011;SDS011;50211;52.768;12.124;2023-03-24T15:23:58;6.03;;;1.48;;
64011;SDS011;50211;52.768;12.124;2023-03-24T15:26:26;4.43;;;1.30;;
64011;SDS011;50211;52.768;12.124;2023-03-24T15:29:14;3.40;;;1.27;;
64011;SDS011;50211;52.768;12.124;2023-03-24T15:31:39;3.58;;;1.35;;
64011;SDS011;50211;52.768;12.124;2023-03-24T15:34:06;2.50;;;1.10;;
64011;SDS011;50211;52.768;12.124;2023-03-24T15:36:33;4.43;;;1.42;;
64011;SDS011;50211;52.768;12.124;2023-03-24T15:39:14;4.45;;;1.25;;
64011;SDS011;50211;52.768;12.124;2023-03-24T15:41:42;4.70;;;1.30;;
64011;SDS011;50211;52.768;12.124;2023-03-24T15:44:09;6.22;;;1.20;;
64011;SDS011;50211;52.768;12.124;2023-03-24T15:46:45;3.90;;;1.25;;
64011;SDS011;50211;52.768;12.124;2023-03-24T15:49:26;4.28;;;1.40;;
64011;SDS011;50211;52.768;12.124;2023-03-24T15:51:59;5.70;;;1.20;;
64011;SDS011;50211;52.768;12.124;2023-03-24T15:54:46;2.83;;;1.15;;
64011;SDS011;50211;52.768;12.124;2023-03-24T15:57:14;5.70;;;1.20;;
64011;SDS011;50211;52.768;12.124;2023-03-24T15:59:42;1.17;;;1.00;;
64011;SDS011;50211;52.768;12.124;2023-03-24T16:02:22;9.05;;;1.40;;
64011;SDS011;50211;52.768;12.124;2023-03-24T16:04:54;2.72;;;1.15;;
64011;SDS011;50211;52.768;12.124;2023-03-24T16:07:24;2.45;;;1.30;;
64011;SDS011;50211;52.768;12.124;2023-03-24T16:09:55;4.30;;;1.70;;
64011;SDS011;50211;52.768;12.124;2023-03-24T16:12:29;2.67;;;0.90;;
64011;SDS011;50211;52.768;12.124;2023-03-24T16:14:56;4.03;;;1.30;;
64011;SDS011;50211;52.768;12.124;2023-03-24T16:17:21;7.50;;;1.58;;
64011;SDS011;50211;52.768;12.124;2023-03-24T16:19:47;8.38;;;1.73;;
64011;SDS011;50211;52.768;12.124;2023-03-24T16:22:12;6.78;;;1.35;;
64011;SDS011;50211;52.768;12.124;2023-03-24T16:24:38;3.08;;;0.98;;
64011;SDS011;50211;52.768;12.124;2023-03-24T16:27:03;3.70;;;1.02;;
64011;SDS011;50211;52.768;12.124;2023-03-24T16:29:29;2.60;;;1.10;;
64011;SDS011;50211;52.768;12.124;2023-03-24T16:31:55;3.65;;;1.30;;
64011;SDS011;50211;52.768;12.124;2023-03-24T16:34:21;3.55;;;1.08;;
64011;SDS011;50211;52.768;12.124;2023-03-24T16:36:51;5.88;;;1.10;;
64011;SDS011;50211;52.768;12.124;2023-03-24T16:39:19;2.13;;;1.00;;
64011;SDS011;50211;52.768;12.124;2023-03-24T16:41:48;3.60;;;1.02;;
64011;SDS011;50211;52.768;12.124;2023-03-24T16:44:14;3.10;;;1.00;;
64011;SDS011;50211;52.768;12.124;2023-03-24T16:46:41;5.82;;;1.27;;
64011;SDS011;50211;52.768;12.124;2023-03-24T16:49:10;3.92;;;1.20;;
64011;SDS011;50211;52.768;12.124;2023-03-24T16:51:39;7.07;;;1.35;;
64011;SDS011;50211;52.768;12.124;2023-03-24T16:54:04;3.80;;;1.20;;
64011;SDS011;50211;52.768;12.124;2023-03-24T16:56:31;4.30;;;1.13;;
64011;SDS011;50211;52.768;12.124;2023-03-24T16:58:57;3.50;;;1.55;;
64011;SDS011;50211;52.768;12.124;2023-03-24T17:01:27;4.75;;;1.08;;
64011;SDS011;50211;52.768;12.124;2023-03-24T17:04:02;5.60;;;1.60;;
64011;SDS011;50211;52.768;12.124;2023-03-24T17:06:36;3.00;;;1.50;;
64011;SDS011;50211;52.768;12.124;2023-03-24T17:09:04;5.47;;;2.60;;
64011;SDS011;50211;52.768;12.124;2023-03-24T17:11:31;9.55;;;3.85;;
64011;SDS011;50211;52.768;12.124;2023-03-24T17:14:02;5.47;;;2.55;;
64011;SDS011;50211;52.768;12.124;2023-03-24T17:16:30;7.80;;;1.85;;
64011;SDS011;50211;52.768;12.124;2023-03-24T17:18:57;6.47;;;2.60;;
64011;SDS011;50211;52.768;12.124;2023-03-24T17:21:22;4.15;;;2.22;;
64011;SDS011;50211;52.768;12.124;2023-03-24T17:23:48;5.40;;;1.88;;
64011;SDS011;50211;52.768;12.124;2023-03-24T17:26:18;6.38;;;1.95;;